Nearby METAR Reports

 

LIBV - Gioia Del Colle, Italy
Distance from station: ЮЮИ 15km
Актуализирано: 24/04/2018 13:55
NOT Current
Тихо и ясно
Тихо и ясно
 Вятър от ЗСЗ
Вятър: ЗСЗ 6 km/h
Температура: 25°C
Точка на оросяване: 3°C
Влажност: 24%
Барометър: 1018 hPa
Метео сводка: Тихо и ясно
Visibility: greater than 10 km
2018/04/24 11:55 LIBV 241155Z 30003KT CAVOK 25/03 Q1018 RMK BKN FEW100 SCT160 BKN230 VIS MIN 9999 WIND THR32 36005KT WIND THR14 04005KT BLU
LIBD - Bari/Palese Macc, Italy
Distance from station: ССЗ 26km
Актуализирано: 24/04/2018 17:20
Тихо и ясно
Тихо и ясно
 Вятър от ИЮИ
Вятър: ИЮИ 7 km/h
Температура: 23°C
Точка на оросяване: 7°C
Влажност: 36%
Барометър: 1017 hPa
Метео сводка: Тихо и ясно
Visibility: greater than 10 km
2018/04/24 15:20 LIBD 241520Z 11004KT CAVOK 23/07 Q1017
LIBH - Marina Di Ginosa, Italy
Distance from station: Ю 53km
Актуализирано: 24/04/2018 13:55
NOT Current
Тихо и ясно
Тихо и ясно
 Вятър от Ю
Вятър: Ю 15 km/h
Температура: 24°C
Точка на оросяване: 17°C
Влажност: 65%
Барометър: 1017 hPa
Метео сводка: Тихо и ясно
Visibility: greater than 10 km
2018/04/24 11:55 LIBH 241155Z 19008KT CAVOK 24/17 Q1017 RMK BKN SCT100 BKN200 QUK 2 QUL 1 SW VIS MAR 20 KM VIS MIN 9999
 
LIBG - Grottaglie(Civ/A, Italy
Distance from station: ЮИ 61km
Актуализирано: 24/04/2018 16:50
Тихо и ясно
Тихо и ясно
 Вятър от ЮЮЗ
Вятър: ЮЮЗ 9 km/h
Температура: 26°C
Точка на оросяване: 10°C
Влажност: 37%
Барометър: 1016 hPa
Метео сводка: Тихо и ясно
Visibility: greater than 10 km
2018/04/24 14:50 LIBG 241450Z 21005KT CAVOK 26/10 Q1016
LIBR - Brindisi/Casale, Italy
Distance from station: ИЮИ 96km
Актуализирано: 24/04/2018 17:20
Тихо и ясно
Тихо и ясно
 Вятър от И
Вятър: И 7 km/h
Температура: 22°C
Точка на оросяване: 9°C
Влажност: 44%
Барометър: 1017 hPa
Метео сводка: Тихо и ясно
Visibility: greater than 10 km
2018/04/24 15:20 LIBR 241520Z 09004KT 060V120 CAVOK 22/09 Q1017
LIBA - Amendola (it-Afb, Italy
Distance from station: СЗ 118km
Актуализирано: 24/04/2018 13:55
NOT Current
Few Clouds
Few Clouds
 Вятър от varies
Вятър: varies 6 km/h
Температура: 28°C
Точка на оросяване: 10°C
Влажност: 32%
Барометър: 1017 hPa
Clouds: Few Clouds
Visibility: 10 km
Cloud details: Few Clouds 1067 m
2018/04/24 11:55 LIBA 241155Z VRB03KT 9999 FEW035 28/10 Q1017 RMK SCT SCT200 VIS MIN 9999 WIND THR11 VRB03KT WIND THR29 /////KT BLU
 
LIBF - Foggia/Gino Lisa, Italy
Distance from station: ЗСЗ 126km
Актуализирано: 24/04/2018 16:50
Тихо и ясно
Тихо и ясно
 Вятър от ЮЮЗ
Вятър: ЮЮЗ 22 km/h
Температура: 26°C
Точка на оросяване: 12°C
Влажност: 42%
Барометър: 1017 hPa
Метео сводка: Тихо и ясно
Visibility: greater than 10 km
2018/04/24 14:50 LIBF 241450Z 20012KT 170V230 CAVOK 26/12 Q1017
LIBN - Lecce (it-Afb), Italy
Distance from station: ЮИ 132km
Актуализирано: 24/04/2018 13:55
NOT Current
Тихо и ясно
Тихо и ясно
 Вятър от С
Вятър: С 7 km/h
Температура: 26°C
Точка на оросяване: 9°C
Влажност: 34%
Барометър: 1017 hPa
Метео сводка: Тихо и ясно
Visibility: greater than 10 km
2018/04/24 11:55 LIBN 241155Z 36004KT CAVOK 26/09 Q1017 RMK SCT SCT200 VIS MIN 9999 WIND THR14 01006KT WIND THR32 34005KT BLU